sensor_id;sensor_type;location;lat;lon;timestamp;P1;durP1;ratioP1;P2;durP2;ratioP2
5493;SDS011;2769;49.864;8.656;2023-06-22T00:01:26;9.67;;;8.60;;
5493;SDS011;2769;49.864;8.656;2023-06-22T00:03:54;8.17;;;7.37;;
5493;SDS011;2769;49.864;8.656;2023-06-22T00:06:22;9.00;;;8.10;;
5493;SDS011;2769;49.864;8.656;2023-06-22T00:08:50;12.80;;;8.47;;
5493;SDS011;2769;49.864;8.656;2023-06-22T00:11:18;10.13;;;8.87;;
5493;SDS011;2769;49.864;8.656;2023-06-22T00:13:46;8.03;;;7.23;;
5493;SDS011;2769;49.864;8.656;2023-06-22T00:16:15;8.47;;;7.23;;
5493;SDS011;2769;49.864;8.656;2023-06-22T00:18:45;8.50;;;7.60;;
5493;SDS011;2769;49.864;8.656;2023-06-22T00:21:13;8.10;;;7.30;;
5493;SDS011;2769;49.864;8.656;2023-06-22T00:23:41;10.87;;;7.87;;
5493;SDS011;2769;49.864;8.656;2023-06-22T00:26:10;10.20;;;7.57;;
5493;SDS011;2769;49.864;8.656;2023-06-22T00:28:38;8.73;;;7.83;;
5493;SDS011;2769;49.864;8.656;2023-06-22T00:31:06;7.73;;;7.03;;
5493;SDS011;2769;49.864;8.656;2023-06-22T00:33:34;14.30;;;8.00;;
5493;SDS011;2769;49.864;8.656;2023-06-22T00:36:06;8.50;;;7.70;;
5493;SDS011;2769;49.864;8.656;2023-06-22T00:38:36;8.50;;;7.70;;
5493;SDS011;2769;49.864;8.656;2023-06-22T00:41:07;9.60;;;8.30;;
5493;SDS011;2769;49.864;8.656;2023-06-22T00:43:35;9.87;;;8.03;;
5493;SDS011;2769;49.864;8.656;2023-06-22T00:46:03;8.73;;;7.67;;
5493;SDS011;2769;49.864;8.656;2023-06-22T00:48:31;8.63;;;7.70;;
5493;SDS011;2769;49.864;8.656;2023-06-22T00:50:59;8.40;;;7.50;;
5493;SDS011;2769;49.864;8.656;2023-06-22T00:53:29;10.03;;;8.73;;
5493;SDS011;2769;49.864;8.656;2023-06-22T00:55:59;11.00;;;9.43;;
5493;SDS011;2769;49.864;8.656;2023-06-22T00:58:29;9.87;;;8.87;;
5493;SDS011;2769;49.864;8.656;2023-06-22T01:00:57;11.00;;;9.10;;
5493;SDS011;2769;49.864;8.656;2023-06-22T01:03:26;11.20;;;8.57;;
5493;SDS011;2769;49.864;8.656;2023-06-22T01:05:55;11.60;;;9.40;;
5493;SDS011;2769;49.864;8.656;2023-06-22T01:08:29;12.47;;;10.10;;
5493;SDS011;2769;49.864;8.656;2023-06-22T01:11:00;12.30;;;9.70;;
5493;SDS011;2769;49.864;8.656;2023-06-22T01:13:32;13.10;;;9.77;;
5493;SDS011;2769;49.864;8.656;2023-06-22T01:16:04;10.90;;;9.47;;
5493;SDS011;2769;49.864;8.656;2023-06-22T01:18:35;11.37;;;9.87;;
5493;SDS011;2769;49.864;8.656;2023-06-22T01:21:04;11.67;;;9.50;;
5493;SDS011;2769;49.864;8.656;2023-06-22T01:23:42;11.50;;;9.37;;
5493;SDS011;2769;49.864;8.656;2023-06-22T01:26:20;12.30;;;9.73;;
5493;SDS011;2769;49.864;8.656;2023-06-22T01:28:57;12.27;;;10.13;;
5493;SDS011;2769;49.864;8.656;2023-06-22T01:31:27;13.60;;;11.10;;
5493;SDS011;2769;49.864;8.656;2023-06-22T01:34:01;13.57;;;10.60;;
5493;SDS011;2769;49.864;8.656;2023-06-22T01:36:31;12.67;;;11.30;;
5493;SDS011;2769;49.864;8.656;2023-06-22T01:39:00;13.93;;;10.97;;
5493;SDS011;2769;49.864;8.656;2023-06-22T01:41:28;11.90;;;10.63;;
5493;SDS011;2769;49.864;8.656;2023-06-22T01:43:58;12.47;;;11.10;;
5493;SDS011;2769;49.864;8.656;2023-06-22T01:46:30;12.73;;;10.13;;
5493;SDS011;2769;49.864;8.656;2023-06-22T01:48:58;12.50;;;11.23;;
5493;SDS011;2769;49.864;8.656;2023-06-22T01:51:26;13.07;;;11.10;;
5493;SDS011;2769;49.864;8.656;2023-06-22T01:53:54;13.50;;;11.60;;
5493;SDS011;2769;49.864;8.656;2023-06-22T01:56:22;15.27;;;11.30;;
5493;SDS011;2769;49.864;8.656;2023-06-22T01:58:52;15.23;;;13.13;;
5493;SDS011;2769;49.864;8.656;2023-06-22T02:01:28;12.93;;;11.17;;
5493;SDS011;2769;49.864;8.656;2023-06-22T02:04:02;12.50;;;11.30;;
5493;SDS011;2769;49.864;8.656;2023-06-22T02:06:33;12.50;;;11.20;;
5493;SDS011;2769;49.864;8.656;2023-06-22T02:09:06;14.43;;;11.47;;
5493;SDS011;2769;49.864;8.656;2023-06-22T02:11:37;12.30;;;11.00;;
5493;SDS011;2769;49.864;8.656;2023-06-22T02:14:08;13.23;;;11.33;;
5493;SDS011;2769;49.864;8.656;2023-06-22T02:16:37;13.00;;;11.30;;
5493;SDS011;2769;49.864;8.656;2023-06-22T02:19:05;13.67;;;11.20;;
5493;SDS011;2769;49.864;8.656;2023-06-22T02:21:33;13.00;;;11.70;;
5493;SDS011;2769;49.864;8.656;2023-06-22T02:24:01;13.30;;;11.90;;
5493;SDS011;2769;49.864;8.656;2023-06-22T02:26:30;13.73;;;11.10;;
5493;SDS011;2769;49.864;8.656;2023-06-22T02:29:01;16.60;;;12.00;;
5493;SDS011;2769;49.864;8.656;2023-06-22T02:31:29;16.13;;;11.90;;
5493;SDS011;2769;49.864;8.656;2023-06-22T02:33:59;20.60;;;12.37;;
5493;SDS011;2769;49.864;8.656;2023-06-22T02:36:27;13.57;;;11.30;;
5493;SDS011;2769;49.864;8.656;2023-06-22T02:38:59;13.47;;;12.07;;
5493;SDS011;2769;49.864;8.656;2023-06-22T02:41:29;16.90;;;11.47;;
5493;SDS011;2769;49.864;8.656;2023-06-22T02:43:57;12.07;;;10.87;;
5493;SDS011;2769;49.864;8.656;2023-06-22T02:46:26;13.43;;;11.70;;
5493;SDS011;2769;49.864;8.656;2023-06-22T02:48:54;15.10;;;11.80;;
5493;SDS011;2769;49.864;8.656;2023-06-22T02:51:23;13.47;;;11.93;;
5493;SDS011;2769;49.864;8.656;2023-06-22T02:53:51;16.07;;;12.07;;
5493;SDS011;2769;49.864;8.656;2023-06-22T02:56:25;14.20;;;12.77;;
5493;SDS011;2769;49.864;8.656;2023-06-22T02:58:57;15.97;;;13.67;;
5493;SDS011;2769;49.864;8.656;2023-06-22T03:01:32;15.23;;;13.23;;
5493;SDS011;2769;49.864;8.656;2023-06-22T03:04:14;20.83;;;15.67;;
5493;SDS011;2769;49.864;8.656;2023-06-22T03:06:44;17.97;;;14.53;;
5493;SDS011;2769;49.864;8.656;2023-06-22T03:09:18;18.73;;;15.37;;
5493;SDS011;2769;49.864;8.656;2023-06-22T03:11:46;19.70;;;15.30;;
5493;SDS011;2769;49.864;8.656;2023-06-22T03:14:15;17.90;;;16.10;;
5493;SDS011;2769;49.864;8.656;2023-06-22T03:16:43;17.60;;;15.60;;
5493;SDS011;2769;49.864;8.656;2023-06-22T03:19:11;16.47;;;14.23;;
5493;SDS011;2769;49.864;8.656;2023-06-22T03:21:39;15.87;;;13.23;;
5493;SDS011;2769;49.864;8.656;2023-06-22T03:24:09;14.03;;;12.37;;
5493;SDS011;2769;49.864;8.656;2023-06-22T03:26:37;15.10;;;13.27;;
5493;SDS011;2769;49.864;8.656;2023-06-22T03:29:05;14.70;;;13.17;;
5493;SDS011;2769;49.864;8.656;2023-06-22T03:31:33;15.13;;;12.70;;
5493;SDS011;2769;49.864;8.656;2023-06-22T03:34:02;15.37;;;11.80;;
5493;SDS011;2769;49.864;8.656;2023-06-22T03:36:30;13.20;;;11.80;;
5493;SDS011;2769;49.864;8.656;2023-06-22T03:38:58;14.00;;;12.27;;
5493;SDS011;2769;49.864;8.656;2023-06-22T03:41:27;13.03;;;11.73;;
5493;SDS011;2769;49.864;8.656;2023-06-22T03:43:55;14.23;;;11.40;;
5493;SDS011;2769;49.864;8.656;2023-06-22T03:46:23;14.23;;;11.13;;
5493;SDS011;2769;49.864;8.656;2023-06-22T03:48:52;14.20;;;12.60;;
5493;SDS011;2769;49.864;8.656;2023-06-22T03:51:20;12.77;;;11.57;;
5493;SDS011;2769;49.864;8.656;2023-06-22T03:53:48;14.83;;;10.97;;
5493;SDS011;2769;49.864;8.656;2023-06-22T03:56:16;13.17;;;11.70;;
5493;SDS011;2769;49.864;8.656;2023-06-22T03:58:49;13.47;;;12.07;;
5493;SDS011;2769;49.864;8.656;2023-06-22T04:01:17;13.63;;;12.33;;
5493;SDS011;2769;49.864;8.656;2023-06-22T04:03:45;14.40;;;12.17;;
5493;SDS011;2769;49.864;8.656;2023-06-22T04:06:16;14.43;;;12.97;;
5493;SDS011;2769;49.864;8.656;2023-06-22T04:08:45;13.90;;;11.47;;
5493;SDS011;2769;49.864;8.656;2023-06-22T04:11:17;14.07;;;12.60;;
5493;SDS011;2769;49.864;8.656;2023-06-22T04:13:45;15.90;;;12.50;;
5493;SDS011;2769;49.864;8.656;2023-06-22T04:16:16;13.57;;;12.13;;
5493;SDS011;2769;49.864;8.656;2023-06-22T04:18:44;13.20;;;11.90;;
5493;SDS011;2769;49.864;8.656;2023-06-22T04:21:12;12.70;;;11.53;;
5493;SDS011;2769;49.864;8.656;2023-06-22T04:23:40;16.90;;;13.50;;
5493;SDS011;2769;49.864;8.656;2023-06-22T04:26:09;14.53;;;12.63;;
5493;SDS011;2769;49.864;8.656;2023-06-22T04:28:37;16.27;;;12.17;;
5493;SDS011;2769;49.864;8.656;2023-06-22T04:31:05;15.90;;;12.60;;
5493;SDS011;2769;49.864;8.656;2023-06-22T04:33:35;13.90;;;12.40;;
5493;SDS011;2769;49.864;8.656;2023-06-22T04:36:07;13.40;;;11.60;;
5493;SDS011;2769;49.864;8.656;2023-06-22T04:38:35;14.50;;;13.00;;
5493;SDS011;2769;49.864;8.656;2023-06-22T04:41:03;14.40;;;12.70;;
5493;SDS011;2769;49.864;8.656;2023-06-22T04:43:30;14.63;;;13.23;;
5493;SDS011;2769;49.864;8.656;2023-06-22T04:45:58;20.47;;;13.07;;
5493;SDS011;2769;49.864;8.656;2023-06-22T04:48:30;15.13;;;12.97;;
5493;SDS011;2769;49.864;8.656;2023-06-22T04:51:01;15.03;;;13.53;;
5493;SDS011;2769;49.864;8.656;2023-06-22T04:53:30;15.73;;;12.43;;
5493;SDS011;2769;49.864;8.656;2023-06-22T04:55:58;14.60;;;12.47;;
5493;SDS011;2769;49.864;8.656;2023-06-22T04:58:26;15.00;;;13.40;;
5493;SDS011;2769;49.864;8.656;2023-06-22T05:00:55;18.10;;;14.00;;
5493;SDS011;2769;49.864;8.656;2023-06-22T05:03:24;14.37;;;12.87;;
5493;SDS011;2769;49.864;8.656;2023-06-22T05:05:53;14.03;;;12.50;;
5493;SDS011;2769;49.864;8.656;2023-06-22T05:08:23;16.93;;;14.50;;
5493;SDS011;2769;49.864;8.656;2023-06-22T05:10:55;15.23;;;13.23;;
5493;SDS011;2769;49.864;8.656;2023-06-22T05:13:31;14.47;;;12.77;;
5493;SDS011;2769;49.864;8.656;2023-06-22T05:15:59;16.00;;;13.70;;
5493;SDS011;2769;49.864;8.656;2023-06-22T05:18:29;14.17;;;12.77;;
5493;SDS011;2769;49.864;8.656;2023-06-22T05:20:57;18.33;;;13.60;;
5493;SDS011;2769;49.864;8.656;2023-06-22T05:23:27;14.63;;;13.23;;
5493;SDS011;2769;49.864;8.656;2023-06-22T05:25:54;14.30;;;12.77;;
5493;SDS011;2769;49.864;8.656;2023-06-22T05:28:24;13.80;;;12.37;;
5493;SDS011;2769;49.864;8.656;2023-06-22T05:30:52;16.70;;;13.43;;
5493;SDS011;2769;49.864;8.656;2023-06-22T05:33:20;13.73;;;12.00;;
5493;SDS011;2769;49.864;8.656;2023-06-22T05:35:48;30.67;;;13.10;;
5493;SDS011;2769;49.864;8.656;2023-06-22T05:38:16;17.33;;;13.40;;
5493;SDS011;2769;49.864;8.656;2023-06-22T05:40:46;15.67;;;13.50;;
5493;SDS011;2769;49.864;8.656;2023-06-22T05:43:13;15.57;;;13.00;;
5493;SDS011;2769;49.864;8.656;2023-06-22T05:45:41;14.93;;;13.43;;
5493;SDS011;2769;49.864;8.656;2023-06-22T05:48:09;13.30;;;12.00;;
5493;SDS011;2769;49.864;8.656;2023-06-22T05:50:37;14.10;;;12.60;;
5493;SDS011;2769;49.864;8.656;2023-06-22T05:53:06;16.33;;;13.57;;
5493;SDS011;2769;49.864;8.656;2023-06-22T05:55:34;15.70;;;11.90;;
5493;SDS011;2769;49.864;8.656;2023-06-22T05:58:03;13.10;;;11.90;;
5493;SDS011;2769;49.864;8.656;2023-06-22T06:00:31;13.90;;;11.80;;
5493;SDS011;2769;49.864;8.656;2023-06-22T06:03:00;12.97;;;11.57;;
5493;SDS011;2769;49.864;8.656;2023-06-22T06:05:30;13.17;;;11.20;;
5493;SDS011;2769;49.864;8.656;2023-06-22T06:07:58;14.70;;;11.00;;
5493;SDS011;2769;49.864;8.656;2023-06-22T06:10:26;12.27;;;11.03;;
5493;SDS011;2769;49.864;8.656;2023-06-22T06:12:56;14.13;;;11.03;;
5493;SDS011;2769;49.864;8.656;2023-06-22T06:15:26;12.70;;;11.40;;
5493;SDS011;2769;49.864;8.656;2023-06-22T06:17:54;11.47;;;10.27;;
5493;SDS011;2769;49.864;8.656;2023-06-22T06:20:22;11.87;;;10.53;;
5493;SDS011;2769;49.864;8.656;2023-06-22T06:22:51;12.00;;;10.40;;
5493;SDS011;2769;49.864;8.656;2023-06-22T06:25:19;12.73;;;10.67;;
5493;SDS011;2769;49.864;8.656;2023-06-22T06:27:49;11.30;;;10.10;;
5493;SDS011;2769;49.864;8.656;2023-06-22T06:30:18;12.30;;;10.80;;
5493;SDS011;2769;49.864;8.656;2023-06-22T06:32:47;13.07;;;10.50;;
5493;SDS011;2769;49.864;8.656;2023-06-22T06:35:17;11.80;;;10.70;;
5493;SDS011;2769;49.864;8.656;2023-06-22T06:37:45;10.70;;;9.63;;
5493;SDS011;2769;49.864;8.656;2023-06-22T06:40:16;11.93;;;9.80;;
5493;SDS011;2769;49.864;8.656;2023-06-22T06:42:45;12.17;;;10.47;;
5493;SDS011;2769;49.864;8.656;2023-06-22T06:45:16;10.60;;;9.70;;
5493;SDS011;2769;49.864;8.656;2023-06-22T06:47:45;10.73;;;9.63;;
5493;SDS011;2769;49.864;8.656;2023-06-22T06:50:15;11.60;;;9.40;;
5493;SDS011;2769;49.864;8.656;2023-06-22T06:52:43;11.57;;;9.20;;
5493;SDS011;2769;49.864;8.656;2023-06-22T06:55:11;14.77;;;9.80;;
5493;SDS011;2769;49.864;8.656;2023-06-22T06:57:41;10.73;;;9.67;;
5493;SDS011;2769;49.864;8.656;2023-06-22T07:00:11;9.97;;;8.90;;
5493;SDS011;2769;49.864;8.656;2023-06-22T07:02:41;10.43;;;9.13;;
5493;SDS011;2769;49.864;8.656;2023-06-22T07:05:10;10.87;;;9.80;;
5493;SDS011;2769;49.864;8.656;2023-06-22T07:07:40;10.90;;;9.80;;
5493;SDS011;2769;49.864;8.656;2023-06-22T07:10:09;12.63;;;9.10;;
5493;SDS011;2769;49.864;8.656;2023-06-22T07:12:37;9.77;;;8.97;;
5493;SDS011;2769;49.864;8.656;2023-06-22T07:15:07;10.10;;;9.07;;
5493;SDS011;2769;49.864;8.656;2023-06-22T07:17:36;10.57;;;9.57;;
5493;SDS011;2769;49.864;8.656;2023-06-22T07:20:06;10.20;;;9.23;;
5493;SDS011;2769;49.864;8.656;2023-06-22T07:22:37;10.20;;;9.20;;
5493;SDS011;2769;49.864;8.656;2023-06-22T07:25:07;8.97;;;8.13;;
5493;SDS011;2769;49.864;8.656;2023-06-22T07:27:36;10.30;;;9.00;;
5493;SDS011;2769;49.864;8.656;2023-06-22T07:30:07;10.83;;;9.63;;
5493;SDS011;2769;49.864;8.656;2023-06-22T07:32:35;9.13;;;8.27;;
5493;SDS011;2769;49.864;8.656;2023-06-22T07:35:04;11.10;;;9.20;;
5493;SDS011;2769;49.864;8.656;2023-06-22T07:37:33;9.60;;;8.80;;
5493;SDS011;2769;49.864;8.656;2023-06-22T07:40:02;10.17;;;9.27;;
5493;SDS011;2769;49.864;8.656;2023-06-22T07:42:34;10.63;;;9.37;;
5493;SDS011;2769;49.864;8.656;2023-06-22T07:45:02;9.47;;;8.57;;
5493;SDS011;2769;49.864;8.656;2023-06-22T07:47:34;9.17;;;8.27;;
5493;SDS011;2769;49.864;8.656;2023-06-22T07:50:03;9.80;;;8.90;;
5493;SDS011;2769;49.864;8.656;2023-06-22T07:52:32;9.03;;;8.33;;
5493;SDS011;2769;49.864;8.656;2023-06-22T07:55:03;10.77;;;8.93;;
5493;SDS011;2769;49.864;8.656;2023-06-22T07:57:31;9.37;;;8.50;;
5493;SDS011;2769;49.864;8.656;2023-06-22T08:00:02;9.47;;;8.50;;
5493;SDS011;2769;49.864;8.656;2023-06-22T08:02:40;9.73;;;8.77;;
5493;SDS011;2769;49.864;8.656;2023-06-22T08:05:09;8.70;;;7.90;;
5493;SDS011;2769;49.864;8.656;2023-06-22T08:07:41;8.97;;;8.17;;
5493;SDS011;2769;49.864;8.656;2023-06-22T08:10:13;9.50;;;8.60;;
5493;SDS011;2769;49.864;8.656;2023-06-22T08:12:41;8.60;;;7.93;;
5493;SDS011;2769;49.864;8.656;2023-06-22T08:15:11;8.63;;;7.80;;
5493;SDS011;2769;49.864;8.656;2023-06-22T08:17:39;9.73;;;8.73;;
5493;SDS011;2769;49.864;8.656;2023-06-22T08:20:08;9.10;;;8.30;;
5493;SDS011;2769;49.864;8.656;2023-06-22T08:22:38;8.80;;;7.87;;
5493;SDS011;2769;49.864;8.656;2023-06-22T08:25:07;9.40;;;8.50;;
5493;SDS011;2769;49.864;8.656;2023-06-22T08:27:36;8.07;;;7.40;;
5493;SDS011;2769;49.864;8.656;2023-06-22T08:30:04;10.17;;;8.37;;
5493;SDS011;2769;49.864;8.656;2023-06-22T08:32:35;8.70;;;7.90;;
5493;SDS011;2769;49.864;8.656;2023-06-22T08:35:03;9.00;;;8.30;;
5493;SDS011;2769;49.864;8.656;2023-06-22T08:37:33;9.63;;;8.70;;
5493;SDS011;2769;49.864;8.656;2023-06-22T08:40:03;8.10;;;7.30;;
5493;SDS011;2769;49.864;8.656;2023-06-22T08:42:32;7.43;;;6.73;;
5493;SDS011;2769;49.864;8.656;2023-06-22T08:45:00;8.47;;;7.77;;
5493;SDS011;2769;49.864;8.656;2023-06-22T08:47:28;7.90;;;7.30;;
5493;SDS011;2769;49.864;8.656;2023-06-22T08:49:58;7.77;;;7.07;;
5493;SDS011;2769;49.864;8.656;2023-06-22T08:52:26;7.70;;;7.00;;
5493;SDS011;2769;49.864;8.656;2023-06-22T08:54:54;8.00;;;7.30;;
5493;SDS011;2769;49.864;8.656;2023-06-22T08:57:22;7.63;;;7.03;;
5493;SDS011;2769;49.864;8.656;2023-06-22T08:59:50;8.80;;;6.47;;
5493;SDS011;2769;49.864;8.656;2023-06-22T09:02:18;6.97;;;6.33;;
5493;SDS011;2769;49.864;8.656;2023-06-22T09:04:46;8.20;;;7.40;;
5493;SDS011;2769;49.864;8.656;2023-06-22T09:07:17;7.43;;;6.63;;
5493;SDS011;2769;49.864;8.656;2023-06-22T09:09:48;7.60;;;6.90;;
5493;SDS011;2769;49.864;8.656;2023-06-22T09:12:17;7.67;;;7.07;;
5493;SDS011;2769;49.864;8.656;2023-06-22T09:14:46;8.20;;;7.40;;
5493;SDS011;2769;49.864;8.656;2023-06-22T09:17:14;6.87;;;6.20;;
5493;SDS011;2769;49.864;8.656;2023-06-22T09:19:42;7.60;;;6.70;;
5493;SDS011;2769;49.864;8.656;2023-06-22T09:22:10;7.03;;;6.33;;
5493;SDS011;2769;49.864;8.656;2023-06-22T09:24:39;7.40;;;6.80;;
5493;SDS011;2769;49.864;8.656;2023-06-22T09:27:07;12.10;;;6.77;;
5493;SDS011;2769;49.864;8.656;2023-06-22T09:29:35;6.93;;;6.33;;
5493;SDS011;2769;49.864;8.656;2023-06-22T09:32:03;7.13;;;6.57;;
5493;SDS011;2769;49.864;8.656;2023-06-22T09:34:32;7.47;;;6.77;;
5493;SDS011;2769;49.864;8.656;2023-06-22T09:36:59;7.20;;;6.53;;
5493;SDS011;2769;49.864;8.656;2023-06-22T09:39:28;7.30;;;6.60;;
5493;SDS011;2769;49.864;8.656;2023-06-22T09:41:59;7.00;;;6.40;;
5493;SDS011;2769;49.864;8.656;2023-06-22T09:44:27;10.80;;;6.13;;
5493;SDS011;2769;49.864;8.656;2023-06-22T09:46:55;8.07;;;6.80;;
5493;SDS011;2769;49.864;8.656;2023-06-22T09:49:23;8.03;;;6.10;;
5493;SDS011;2769;49.864;8.656;2023-06-22T09:52:11;6.90;;;6.20;;
5493;SDS011;2769;49.864;8.656;2023-06-22T09:54:39;7.30;;;6.60;;
5493;SDS011;2769;49.864;8.656;2023-06-22T09:57:08;7.07;;;6.53;;
5493;SDS011;2769;49.864;8.656;2023-06-22T09:59:37;6.13;;;5.70;;
5493;SDS011;2769;49.864;8.656;2023-06-22T10:02:06;6.53;;;5.93;;
5493;SDS011;2769;49.864;8.656;2023-06-22T10:04:34;6.32;;;5.82;;
5493;SDS011;2769;49.864;8.656;2023-06-22T10:07:03;6.38;;;5.80;;
5493;SDS011;2769;49.864;8.656;2023-06-22T10:09:32;6.05;;;5.50;;
5493;SDS011;2769;49.864;8.656;2023-06-22T10:12:00;6.17;;;5.77;;
5493;SDS011;2769;49.864;8.656;2023-06-22T10:14:29;6.17;;;5.73;;
5493;SDS011;2769;49.864;8.656;2023-06-22T10:16:57;6.63;;;5.33;;
5493;SDS011;2769;49.864;8.656;2023-06-22T10:19:25;7.17;;;5.70;;
5493;SDS011;2769;49.864;8.656;2023-06-22T10:21:53;6.63;;;6.10;;
5493;SDS011;2769;49.864;8.656;2023-06-22T10:24:21;6.53;;;5.73;;
5493;SDS011;2769;49.864;8.656;2023-06-22T10:26:49;6.63;;;6.03;;
5493;SDS011;2769;49.864;8.656;2023-06-22T10:29:18;6.13;;;5.68;;
5493;SDS011;2769;49.864;8.656;2023-06-22T10:31:49;6.05;;;5.65;;
5493;SDS011;2769;49.864;8.656;2023-06-22T10:34:17;6.82;;;5.68;;
5493;SDS011;2769;49.864;8.656;2023-06-22T10:36:45;6.43;;;5.97;;
5493;SDS011;2769;49.864;8.656;2023-06-22T10:39:15;6.60;;;6.10;;
5493;SDS011;2769;49.864;8.656;2023-06-22T10:41:43;7.23;;;6.33;;
5493;SDS011;2769;49.864;8.656;2023-06-22T10:44:11;7.30;;;6.57;;
5493;SDS011;2769;49.864;8.656;2023-06-22T10:46:40;8.37;;;6.47;;
5493;SDS011;2769;49.864;8.656;2023-06-22T10:49:10;10.00;;;6.50;;
5493;SDS011;2769;49.864;8.656;2023-06-22T10:51:38;8.40;;;6.20;;
5493;SDS011;2769;49.864;8.656;2023-06-22T10:54:06;6.90;;;6.20;;
5493;SDS011;2769;49.864;8.656;2023-06-22T10:56:34;7.15;;;6.45;;
5493;SDS011;2769;49.864;8.656;2023-06-22T10:59:02;6.72;;;5.63;;
5493;SDS011;2769;49.864;8.656;2023-06-22T11:01:30;5.85;;;5.45;;
5493;SDS011;2769;49.864;8.656;2023-06-22T11:04:02;5.88;;;5.32;;
5493;SDS011;2769;49.864;8.656;2023-06-22T11:06:32;7.05;;;5.13;;
5493;SDS011;2769;49.864;8.656;2023-06-22T11:09:00;5.68;;;5.28;;
5493;SDS011;2769;49.864;8.656;2023-06-22T11:11:42;9.13;;;6.10;;
5493;SDS011;2769;49.864;8.656;2023-06-22T11:14:10;8.60;;;6.47;;
5493;SDS011;2769;49.864;8.656;2023-06-22T11:16:38;6.07;;;5.57;;
5493;SDS011;2769;49.864;8.656;2023-06-22T11:19:06;6.07;;;5.50;;
5493;SDS011;2769;49.864;8.656;2023-06-22T11:21:35;6.80;;;6.20;;
5493;SDS011;2769;49.864;8.656;2023-06-22T11:24:03;8.85;;;5.55;;
5493;SDS011;2769;49.864;8.656;2023-06-22T11:26:32;7.00;;;5.88;;
5493;SDS011;2769;49.864;8.656;2023-06-22T11:29:00;7.95;;;6.10;;
5493;SDS011;2769;49.864;8.656;2023-06-22T11:31:31;6.40;;;5.90;;
5493;SDS011;2769;49.864;8.656;2023-06-22T11:33:59;6.32;;;5.68;;
5493;SDS011;2769;49.864;8.656;2023-06-22T11:36:28;7.15;;;5.97;;
5493;SDS011;2769;49.864;8.656;2023-06-22T11:39:00;6.05;;;5.72;;
5493;SDS011;2769;49.864;8.656;2023-06-22T11:41:29;6.88;;;6.28;;
5493;SDS011;2769;49.864;8.656;2023-06-22T11:43:57;10.82;;;5.97;;
5493;SDS011;2769;49.864;8.656;2023-06-22T11:46:25;6.38;;;5.75;;
5493;SDS011;2769;49.864;8.656;2023-06-22T11:48:53;5.85;;;5.25;;
5493;SDS011;2769;49.864;8.656;2023-06-22T11:51:21;6.18;;;5.20;;
5493;SDS011;2769;49.864;8.656;2023-06-22T11:53:49;5.97;;;5.40;;
5493;SDS011;2769;49.864;8.656;2023-06-22T11:56:18;6.18;;;5.57;;
5493;SDS011;2769;49.864;8.656;2023-06-22T11:58:46;6.00;;;5.47;;
5493;SDS011;2769;49.864;8.656;2023-06-22T12:01:14;6.00;;;5.55;;
5493;SDS011;2769;49.864;8.656;2023-06-22T12:03:42;6.10;;;5.38;;
5493;SDS011;2769;49.864;8.656;2023-06-22T12:06:10;7.78;;;5.75;;
5493;SDS011;2769;49.864;8.656;2023-06-22T12:08:38;6.68;;;5.57;;
5493;SDS011;2769;49.864;8.656;2023-06-22T12:11:06;7.78;;;5.47;;
5493;SDS011;2769;49.864;8.656;2023-06-22T12:13:36;6.93;;;5.43;;
5493;SDS011;2769;49.864;8.656;2023-06-22T12:16:04;6.82;;;6.00;;
5493;SDS011;2769;49.864;8.656;2023-06-22T12:18:35;8.02;;;5.47;;
5493;SDS011;2769;49.864;8.656;2023-06-22T12:21:03;6.35;;;5.22;;
5493;SDS011;2769;49.864;8.656;2023-06-22T12:23:31;7.30;;;5.72;;
5493;SDS011;2769;49.864;8.656;2023-06-22T12:25:59;8.93;;;5.53;;
5493;SDS011;2769;49.864;8.656;2023-06-22T12:28:28;6.28;;;5.78;;
5493;SDS011;2769;49.864;8.656;2023-06-22T12:30:57;10.00;;;5.65;;
5493;SDS011;2769;49.864;8.656;2023-06-22T12:33:26;7.03;;;5.43;;
5493;SDS011;2769;49.864;8.656;2023-06-22T12:35:57;6.43;;;5.78;;
5493;SDS011;2769;49.864;8.656;2023-06-22T12:38:25;5.88;;;5.32;;
5493;SDS011;2769;49.864;8.656;2023-06-22T12:40:53;5.90;;;5.35;;
5493;SDS011;2769;49.864;8.656;2023-06-22T12:43:21;8.13;;;5.25;;
5493;SDS011;2769;49.864;8.656;2023-06-22T12:45:49;5.93;;;5.40;;
5493;SDS011;2769;49.864;8.656;2023-06-22T12:48:18;5.22;;;4.70;;
5493;SDS011;2769;49.864;8.656;2023-06-22T12:50:46;7.93;;;5.28;;
5493;SDS011;2769;49.864;8.656;2023-06-22T12:53:14;6.90;;;5.38;;
5493;SDS011;2769;49.864;8.656;2023-06-22T12:55:42;5.90;;;5.40;;
5493;SDS011;2769;49.864;8.656;2023-06-22T12:58:10;5.97;;;5.47;;
5493;SDS011;2769;49.864;8.656;2023-06-22T13:00:38;9.73;;;5.75;;
5493;SDS011;2769;49.864;8.656;2023-06-22T13:03:06;6.43;;;5.82;;
5493;SDS011;2769;49.864;8.656;2023-06-22T13:05:35;6.25;;;5.75;;
5493;SDS011;2769;49.864;8.656;2023-06-22T13:08:04;6.13;;;5.53;;
5493;SDS011;2769;49.864;8.656;2023-06-22T13:10:32;6.13;;;5.32;;
5493;SDS011;2769;49.864;8.656;2023-06-22T13:13:00;9.05;;;5.45;;
5493;SDS011;2769;49.864;8.656;2023-06-22T13:15:28;5.63;;;4.88;;
5493;SDS011;2769;49.864;8.656;2023-06-22T13:17:57;5.45;;;4.68;;
5493;SDS011;2769;49.864;8.656;2023-06-22T13:20:25;6.85;;;4.20;;
5493;SDS011;2769;49.864;8.656;2023-06-22T13:22:55;5.43;;;4.30;;
5493;SDS011;2769;49.864;8.656;2023-06-22T13:25:23;7.32;;;4.20;;
5493;SDS011;2769;49.864;8.656;2023-06-22T13:27:54;6.50;;;4.13;;
5493;SDS011;2769;49.864;8.656;2023-06-22T13:30:22;5.03;;;4.05;;
5493;SDS011;2769;49.864;8.656;2023-06-22T13:32:50;6.20;;;3.65;;
5493;SDS011;2769;49.864;8.656;2023-06-22T13:35:18;6.65;;;3.80;;
5493;SDS011;2769;49.864;8.656;2023-06-22T13:37:46;5.55;;;3.65;;
5493;SDS011;2769;49.864;8.656;2023-06-22T13:40:15;8.52;;;3.75;;
5493;SDS011;2769;49.864;8.656;2023-06-22T13:42:43;9.63;;;4.47;;
5493;SDS011;2769;49.864;8.656;2023-06-22T13:45:11;10.27;;;4.45;;
5493;SDS011;2769;49.864;8.656;2023-06-22T13:47:39;9.30;;;4.47;;
5493;SDS011;2769;49.864;8.656;2023-06-22T13:50:07;10.05;;;4.55;;
5493;SDS011;2769;49.864;8.656;2023-06-22T13:52:36;12.05;;;4.80;;
5493;SDS011;2769;49.864;8.656;2023-06-22T13:55:04;12.52;;;4.80;;
5493;SDS011;2769;49.864;8.656;2023-06-22T13:57:34;11.35;;;4.85;;
5493;SDS011;2769;49.864;8.656;2023-06-22T14:00:04;10.48;;;4.55;;
5493;SDS011;2769;49.864;8.656;2023-06-22T14:02:36;11.50;;;4.70;;
5493;SDS011;2769;49.864;8.656;2023-06-22T14:05:05;12.13;;;5.07;;
5493;SDS011;2769;49.864;8.656;2023-06-22T14:07:33;9.30;;;4.37;;
5493;SDS011;2769;49.864;8.656;2023-06-22T14:10:01;11.47;;;4.70;;
5493;SDS011;2769;49.864;8.656;2023-06-22T14:12:29;10.93;;;4.70;;
5493;SDS011;2769;49.864;8.656;2023-06-22T14:14:59;8.50;;;4.20;;
5493;SDS011;2769;49.864;8.656;2023-06-22T14:17:27;9.03;;;4.60;;
5493;SDS011;2769;49.864;8.656;2023-06-22T14:19:55;14.87;;;4.87;;
5493;SDS011;2769;49.864;8.656;2023-06-22T14:22:23;13.13;;;4.83;;
5493;SDS011;2769;49.864;8.656;2023-06-22T14:24:51;8.47;;;4.70;;
5493;SDS011;2769;49.864;8.656;2023-06-22T14:27:19;11.20;;;4.60;;
5493;SDS011;2769;49.864;8.656;2023-06-22T14:29:47;14.43;;;4.20;;
5493;SDS011;2769;49.864;8.656;2023-06-22T14:32:16;7.10;;;4.67;;
5493;SDS011;2769;49.864;8.656;2023-06-22T14:34:44;11.47;;;4.40;;
5493;SDS011;2769;49.864;8.656;2023-06-22T14:37:12;10.70;;;4.60;;
5493;SDS011;2769;49.864;8.656;2023-06-22T14:39:40;7.03;;;4.60;;
5493;SDS011;2769;49.864;8.656;2023-06-22T14:42:08;7.70;;;4.13;;
5493;SDS011;2769;49.864;8.656;2023-06-22T14:44:36;17.27;;;5.07;;
5493;SDS011;2769;49.864;8.656;2023-06-22T14:47:05;13.57;;;5.00;;
5493;SDS011;2769;49.864;8.656;2023-06-22T14:49:34;18.10;;;4.37;;
5493;SDS011;2769;49.864;8.656;2023-06-22T14:52:03;10.70;;;4.50;;
5493;SDS011;2769;49.864;8.656;2023-06-22T14:54:33;11.47;;;5.23;;
5493;SDS011;2769;49.864;8.656;2023-06-22T14:57:02;8.13;;;4.83;;
5493;SDS011;2769;49.864;8.656;2023-06-22T14:59:30;7.33;;;4.90;;
5493;SDS011;2769;49.864;8.656;2023-06-22T15:01:57;11.60;;;5.07;;
5493;SDS011;2769;49.864;8.656;2023-06-22T15:04:25;8.73;;;4.43;;
5493;SDS011;2769;49.864;8.656;2023-06-22T15:06:59;7.50;;;4.57;;
5493;SDS011;2769;49.864;8.656;2023-06-22T15:09:27;8.57;;;4.70;;
5493;SDS011;2769;49.864;8.656;2023-06-22T15:11:55;7.57;;;4.50;;
5493;SDS011;2769;49.864;8.656;2023-06-22T15:14:24;12.83;;;5.60;;